Time;durP1;ratioP1;P1;durP2;ratioP2;P2;SDS_P1;SDS_P2;PMS_P1;PMS_P2;Temp;Humidity;BMP_temperature;BMP_pressure;BME280_temperature;BME280_humidity;BME280_pressure;Samples;Min_cycle;Max_cycle;Signal;HPM_P1;HPM_P2
2022/01/09 00:01:02;;;;;;;15.73;7.80;;;;;;;4.17;100.00;95982.72;5096770;28;20490;-35
2022/01/09 00:03:29;;;;;;;12.70;6.93;;;;;;;4.16;100.00;95962.75;5096753;28;20512;-34
2022/01/09 00:05:58;;;;;;;22.13;9.87;;;;;;;4.14;100.00;95951.63;5096761;28;20855;-34
2022/01/09 00:08:25;;;;;;;21.67;9.27;;;;;;;4.17;100.00;95953.81;5096646;28;20451;-34
2022/01/09 00:10:53;;;;;;;27.27;14.80;;;;;;;4.18;100.00;95958.06;5096469;28;20529;-34
2022/01/09 00:13:20;;;;;;;39.93;18.00;;;;;;;4.21;100.00;95949.75;5096471;28;20451;-35
2022/01/09 00:15:47;;;;;;;17.03;9.80;;;;;;;4.19;100.00;95943.91;5096089;28;20518;-34
2022/01/09 00:18:14;;;;;;;16.20;9.13;;;;;;;4.21;100.00;95947.13;5096543;28;20496;-34
2022/01/09 00:20:42;;;;;;;24.90;12.70;;;;;;;4.14;99.86;95946.38;5096018;28;20486;-33
2022/01/09 00:23:12;;;;;;;24.83;11.70;;;;;;;4.07;100.00;95946.44;5096475;28;20443;-33
2022/01/09 00:25:39;;;;;;;22.60;12.00;;;;;;;4.02;100.00;95943.66;5096276;28;20945;-34
2022/01/09 00:28:06;;;;;;;20.67;9.67;;;;;;;4.06;100.00;95950.09;5096012;28;20531;-34
2022/01/09 00:30:34;;;;;;;23.17;10.40;;;;;;;4.06;100.00;95944.81;5096202;28;20443;-33
2022/01/09 00:33:01;;;;;;;16.43;9.13;;;;;;;4.08;100.00;95940.97;5095837;28;20948;-34
2022/01/09 00:35:29;;;;;;;18.53;9.40;;;;;;;4.06;100.00;95943.00;5096028;28;20447;-34
2022/01/09 00:37:56;;;;;;;19.17;9.83;;;;;;;4.08;100.00;95938.34;5096052;28;20442;-34
2022/01/09 00:40:24;;;;;;;22.40;8.87;;;;;;;4.07;100.00;95936.75;5095609;28;20490;-33
2022/01/09 00:42:52;;;;;;;17.57;10.43;;;;;;;4.01;100.00;95932.34;5095985;28;20444;-34
2022/01/09 00:45:20;;;;;;;24.63;11.87;;;;;;;4.03;100.00;95922.44;5095653;28;20918;-33
2022/01/09 00:47:47;;;;;;;24.50;13.33;;;;;;;4.03;100.00;95922.44;5095884;28;20802;-34
2022/01/09 00:50:16;;;;;;;21.57;11.53;;;;;;;3.89;100.00;95906.00;5095742;28;20500;-34
2022/01/09 00:52:43;;;;;;;23.70;11.73;;;;;;;4.04;100.00;95925.84;5096520;28;20792;-34
2022/01/09 00:55:11;;;;;;;25.13;13.03;;;;;;;4.06;100.00;95919.34;5095306;28;20453;-34
2022/01/09 00:57:40;;;;;;;22.80;10.47;;;;;;;4.08;100.00;95919.94;5095281;28;20470;-33
2022/01/09 01:00:09;;;;;;;18.63;10.53;;;;;;;4.10;100.00;95914.47;5095497;28;20509;-34
2022/01/09 01:02:36;;;;;;;21.93;10.30;;;;;;;4.12;100.00;95911.66;5095252;28;20926;-34
2022/01/09 01:05:04;;;;;;;13.30;9.33;;;;;;;4.08;100.00;95906.81;5095274;28;20451;-33
2022/01/09 01:07:32;;;;;;;15.57;8.67;;;;;;;4.06;100.00;95911.47;5095453;28;20446;-34
2022/01/09 01:09:59;;;;;;;16.33;8.40;;;;;;;4.03;100.00;95905.88;5095920;28;20449;-34
2022/01/09 01:12:27;;;;;;;19.53;10.53;;;;;;;4.04;100.00;95904.84;5095108;28;20450;-34
2022/01/09 01:14:56;;;;;;;18.83;9.20;;;;;;;4.03;100.00;95893.53;5095544;28;20446;-34
2022/01/09 01:17:24;;;;;;;19.80;10.70;;;;;;;4.01;100.00;95892.94;5094965;28;20439;-34
2022/01/09 01:19:52;;;;;;;28.30;10.80;;;;;;;3.99;100.00;95892.34;5095140;28;21012;-35
2022/01/09 01:22:20;;;;;;;17.80;10.47;;;;;;;3.89;100.00;95892.03;5094769;28;20497;-35
2022/01/09 01:24:48;;;;;;;21.27;10.47;;;;;;;3.86;100.00;95889.84;5095013;28;20451;-33
2022/01/09 01:27:15;;;;;;;17.20;9.80;;;;;;;3.78;100.00;95874.38;5094800;28;20529;-34
2022/01/09 01:29:42;;;;;;;25.70;10.30;;;;;;;3.80;100.00;95878.38;5094668;28;20445;-35
2022/01/09 01:32:11;;;;;;;17.27;10.10;;;;;;;3.78;100.00;95863.88;5094698;28;20525;-34
2022/01/09 01:34:39;;;;;;;20.23;11.00;;;;;;;3.85;100.00;95872.47;5094627;28;20447;-34
2022/01/09 01:37:06;;;;;;;20.17;10.47;;;;;;;3.87;100.00;95865.19;5094590;28;20470;-35
2022/01/09 01:39:33;;;;;;;23.43;14.23;;;;;;;3.90;100.00;95862.16;5094649;28;20439;-34
2022/01/09 01:42:00;;;;;;;19.40;11.20;;;;;;;3.92;100.00;95857.47;5094570;28;20458;-34
2022/01/09 01:44:40;;;;;;;22.67;11.50;;;;;;;3.95;100.00;95869.38;5095171;28;20446;-34
2022/01/09 01:47:07;;;;;;;19.47;10.30;;;;;;;3.95;100.00;95854.41;5094685;28;20434;-35
2022/01/09 01:49:36;;;;;;;24.17;14.00;;;;;;;3.98;100.00;95838.22;5094800;28;20454;-33
2022/01/09 01:52:05;;;;;;;23.70;12.33;;;;;;;3.94;100.00;95836.25;5094270;28;20808;-33
2022/01/09 01:54:33;;;;;;;24.57;11.30;;;;;;;3.95;100.00;95838.66;5094310;28;20488;-34
2022/01/09 01:57:00;;;;;;;29.63;16.03;;;;;;;3.96;100.00;95840.28;5094130;28;20562;-34
2022/01/09 01:59:28;;;;;;;32.87;14.37;;;;;;;3.97;100.00;95835.81;5094201;28;20447;-34
2022/01/09 02:01:55;;;;;;;31.83;12.33;;;;;;;3.97;100.00;95836.59;5094149;28;20497;-34
2022/01/09 02:04:22;;;;;;;29.23;12.73;;;;;;;3.99;100.00;95826.69;5094099;28;20439;-34
2022/01/09 02:06:52;;;;;;;26.73;13.33;;;;;;;3.99;100.00;95823.28;5094078;28;20526;-34
2022/01/09 02:09:19;;;;;;;27.27;14.37;;;;;;;3.99;100.00;95824.06;5094122;28;20439;-35
2022/01/09 02:11:47;;;;;;;19.70;11.33;;;;;;;4.02;100.00;95818.38;5094230;28;20443;-34
2022/01/09 02:14:14;;;;;;;30.60;13.53;;;;;;;4.03;100.00;95817.34;5093944;28;20926;-34
2022/01/09 02:16:42;;;;;;;30.70;12.73;;;;;;;4.03;100.00;95825.25;5093789;28;20465;-34
2022/01/09 02:19:13;;;;;;;23.40;11.87;;;;;;;4.00;99.58;95819.59;5094123;28;20473;-34
2022/01/09 02:21:44;;;;;;;22.77;11.20;;;;;;;3.96;99.94;95829.75;5094085;28;20989;-34
2022/01/09 02:24:12;;;;;;;25.80;12.20;;;;;;;3.88;100.00;95816.91;5094174;28;20436;-34
2022/01/09 02:26:39;;;;;;;29.17;11.37;;;;;;;3.88;100.00;95811.66;5093962;28;20835;-34
2022/01/09 02:29:07;;;;;;;27.13;12.73;;;;;;;3.87;100.00;95804.78;5094025;28;20451;-34
2022/01/09 02:31:35;;;;;;;26.17;14.60;;;;;;;3.85;100.00;95802.41;5094028;28;20450;-34
2022/01/09 02:34:02;;;;;;;37.03;14.07;;;;;;;3.85;100.00;95801.56;5093978;28;20443;-34
2022/01/09 02:36:29;;;;;;;31.20;14.10;;;;;;;3.86;100.00;95795.31;5094105;28;20564;-34
2022/01/09 02:38:58;;;;;;;31.47;17.57;;;;;;;3.86;100.00;95792.69;5093594;28;20435;-34
2022/01/09 02:41:25;;;;;;;34.10;14.97;;;;;;;3.77;100.00;95773.78;5093813;28;20513;-34
2022/01/09 02:43:52;;;;;;;25.73;14.40;;;;;;;3.82;100.00;95796.78;5093704;28;20453;-34
2022/01/09 02:46:34;;;;;;;28.30;13.03;;;;;;;3.83;100.00;95801.00;5093641;28;20445;-34
2022/01/09 02:49:05;;;;;;;21.93;10.30;;;;;;;3.78;100.00;95806.09;5093761;28;20431;-34
2022/01/09 02:51:35;;;;;;;34.10;12.03;;;;;;;3.56;100.00;95785.50;5093525;28;20431;-34
2022/01/09 02:55:05;;;;;;;22.73;10.90;;;;;;;3.60;100.00;95794.56;5093738;28;20439;-35
2022/01/09 02:56:56;;;;;;;18.83;9.97;;;;;;;3.59;100.00;95798.22;5093547;28;20958;-35
2022/01/09 02:59:23;;;;;;;13.90;8.03;;;;;;;3.46;100.00;95788.63;5093515;28;20435;-33
2022/01/09 03:01:50;;;;;;;16.47;7.13;;;;;;;3.40;100.00;95788.66;5093337;28;20494;-33
2022/01/09 03:04:17;;;;;;;16.40;8.03;;;;;;;3.36;100.00;95792.78;5093536;28;20863;-33
2022/01/09 03:06:44;;;;;;;13.50;6.70;;;;;;;3.35;100.00;95778.81;5093485;28;20460;-35
2022/01/09 03:09:13;;;;;;;15.43;6.13;;;;;;;3.28;100.00;95785.97;5093257;28;20442;-33
2022/01/09 03:11:40;;;;;;;11.97;6.27;;;;;;;3.18;100.00;95777.75;5093594;28;20489;-34
2022/01/09 03:14:08;;;;;;;12.70;6.00;;;;;;;3.11;100.00;95785.69;5093687;28;20926;-34
2022/01/09 03:16:35;;;;;;;12.23;5.70;;;;;;;3.15;100.00;95786.88;5093186;28;20840;-34
2022/01/09 03:19:03;;;;;;;10.77;7.17;;;;;;;3.16;100.00;95783.25;5093167;28;20474;-34
2022/01/09 03:21:30;;;;;;;11.77;8.43;;;;;;;3.19;100.00;95774.13;5093109;28;20491;-33
2022/01/09 03:23:57;;;;;;;12.27;5.80;;;;;;;3.22;100.00;95777.13;5093172;28;20443;-34
2022/01/09 03:26:26;;;;;;;10.63;5.73;;;;;;;3.24;100.00;95767.22;5093197;28;20449;-34
2022/01/09 03:28:53;;;;;;;9.50;5.30;;;;;;;3.28;100.00;95776.25;5095102;28;20450;-34
2022/01/09 03:31:20;;;;;;;10.37;5.53;;;;;;;3.33;100.00;95772.19;5097335;28;20796;-34
2022/01/09 03:33:48;;;;;;;11.27;6.30;;;;;;;3.36;100.00;95783.06;5097068;28;20435;-34
2022/01/09 03:36:15;;;;;;;11.13;6.50;;;;;;;3.38;100.00;95780.25;5097185;28;20443;-33
2022/01/09 03:38:42;;;;;;;14.17;6.70;;;;;;;3.38;100.00;95780.25;5096969;28;20450;-34
2022/01/09 03:41:09;;;;;;;16.03;9.80;;;;;;;3.36;100.00;95777.81;5096786;28;21051;-34
2022/01/09 03:43:38;;;;;;;24.33;9.97;;;;;;;3.33;100.00;95772.19;5096861;28;20439;-34
2022/01/09 03:46:05;;;;;;;15.07;8.03;;;;;;;3.24;100.00;95769.03;5097034;28;20442;-33
2022/01/09 03:48:32;;;;;;;17.70;8.37;;;;;;;3.22;100.00;95777.13;5096989;28;20469;-34
2022/01/09 03:51:01;;;;;;;26.93;9.90;;;;;;;3.23;100.00;95773.50;5096925;28;20786;-34
2022/01/09 03:53:30;;;;;;;19.17;9.40;;;;;;;3.23;100.00;95775.31;5096667;28;20435;-34
2022/01/09 03:55:57;;;;;;;26.03;11.47;;;;;;;3.24;100.00;95775.09;5096820;28;20470;-34
2022/01/09 03:58:24;;;;;;;18.70;11.53;;;;;;;3.26;100.00;95780.91;5096745;28;20439;-34
2022/01/09 04:00:53;;;;;;;17.43;8.70;;;;;;;3.20;100.00;95779.16;5096702;28;20474;-34
2022/01/09 04:03:20;;;;;;;38.10;13.47;;;;;;;3.23;100.00;95776.13;5096748;28;20454;-34
2022/01/09 04:05:47;;;;;;;31.40;15.03;;;;;;;3.26;100.00;95777.50;5096396;28;20439;-33
2022/01/09 04:08:15;;;;;;;43.20;18.30;;;;;;;3.25;100.00;95766.22;5096317;28;20932;-33
2022/01/09 04:10:43;;;;;;;29.23;15.27;;;;;;;3.27;100.00;95769.41;5096268;28;20442;-34
2022/01/09 04:13:13;;;;;;;24.73;11.40;;;;;;;3.27;100.00;95769.41;5096623;28;20520;-34
2022/01/09 04:15:45;;;;;;;29.10;10.57;;;;;;;3.26;100.00;95769.63;5097557;28;20446;-33
2022/01/09 04:18:15;;;;;;;20.43;8.10;;;;;;;3.24;100.00;95764.59;5096251;28;20473;-34
2022/01/09 04:20:43;;;;;;;20.07;7.90;;;;;;;3.27;100.00;95774.66;5095947;28;20446;-34
2022/01/09 04:23:11;;;;;;;11.87;5.60;;;;;;;3.30;100.00;95785.75;5096384;28;20957;-35
2022/01/09 04:25:39;;;;;;;16.37;7.13;;;;;;;3.31;100.00;95779.47;5096254;28;20446;-34
2022/01/09 04:28:06;;;;;;;12.97;6.77;;;;;;;3.33;100.00;95777.44;5096089;28;20443;-33
2022/01/09 04:30:33;;;;;;;14.27;6.83;;;;;;;3.34;100.00;95777.22;5096221;28;20435;-34
2022/01/09 04:33:00;;;;;;;15.83;8.83;;;;;;;3.06;100.00;95741.75;5095881;28;20439;-34
2022/01/09 04:35:29;;;;;;;14.40;8.57;;;;;;;3.15;100.00;95771.13;5095834;28;20445;-33
2022/01/09 04:37:57;;;;;;;24.03;7.50;;;;;;;3.02;100.00;95773.88;5096066;28;20450;-34
2022/01/09 04:40:25;;;;;;;14.27;7.57;;;;;;;2.96;100.00;95767.63;5095635;28;20527;-34
2022/01/09 04:42:55;;;;;;;15.30;8.70;;;;;;;2.77;100.00;95758.88;5095551;28;20522;-35
2022/01/09 04:45:24;;;;;;;14.50;7.37;;;;;;;2.99;100.00;95777.72;5095634;28;20504;-35
2022/01/09 04:47:52;;;;;;;17.13;7.07;;;;;;;3.03;100.00;95784.16;5095510;28;20790;-34
2022/01/09 04:50:25;;;;;;;25.17;9.33;;;;;;;3.04;100.00;95790.19;5095756;28;20867;-34
2022/01/09 04:52:59;;;;;;;18.37;8.10;;;;;;;3.05;100.00;95776.03;5095593;28;20475;-34
2022/01/09 04:55:27;;;;;;;17.20;9.13;;;;;;;2.97;100.00;95773.69;5095303;28;20937;-34
2022/01/09 04:57:54;;;;;;;19.37;9.40;;;;;;;2.87;100.00;95768.91;5095429;28;20439;-34
2022/01/09 05:00:21;;;;;;;11.97;7.13;;;;;;;2.87;100.00;95764.47;5095287;28;20447;-34
2022/01/09 05:02:49;;;;;;;13.70;7.40;;;;;;;2.89;100.00;95776.59;5095188;28;20946;-34
2022/01/09 05:05:17;;;;;;;15.83;9.40;;;;;;;2.85;100.00;95777.00;5095173;28;20442;-34
2022/01/09 05:07:44;;;;;;;41.00;13.03;;;;;;;2.79;100.00;95772.59;5095117;28;20445;-34
2022/01/09 05:10:14;;;;;;;43.57;15.40;;;;;;;2.82;100.00;95772.19;5095144;28;20443;-34
2022/01/09 05:12:41;;;;;;;67.10;24.40;;;;;;;2.81;100.00;95780.25;5095410;28;20442;-34
2022/01/09 05:15:10;;;;;;;25.73;11.93;;;;;;;2.84;100.00;95778.03;5095525;28;20442;-34
2022/01/09 05:17:37;;;;;;;23.83;8.00;;;;;;;2.84;100.00;95754.44;5095214;28;20489;-34
2022/01/09 05:20:06;;;;;;;10.17;6.70;;;;;;;2.85;100.00;95760.47;5094915;28;20447;-33
2022/01/09 05:22:33;;;;;;;19.27;9.07;;;;;;;2.85;100.00;95756.00;5094843;28;20490;-34
2022/01/09 05:25:02;;;;;;;15.93;8.90;;;;;;;2.86;100.00;95760.25;5094955;28;20943;-35
2022/01/09 05:27:31;;;;;;;26.80;10.03;;;;;;;2.85;100.00;95755.22;5095259;28;20839;-34
2022/01/09 05:29:58;;;;;;;25.60;8.03;;;;;;;2.85;100.00;95756.00;5094844;28;20451;-33
2022/01/09 05:32:25;;;;;;;32.13;11.60;;;;;;;2.86;100.00;95767.31;5094774;28;20471;-34
2022/01/09 05:34:53;;;;;;;20.97;9.53;;;;;;;2.87;100.00;95764.47;5094996;28;20470;-34
2022/01/09 05:37:20;;;;;;;23.90;11.20;;;;;;;2.93;100.00;95756.78;5094558;28;20447;-34
2022/01/09 05:39:47;;;;;;;46.17;20.80;;;;;;;2.93;100.00;95759.41;5094697;28;20546;-34
2022/01/09 05:42:15;;;;;;;43.30;14.57;;;;;;;2.66;100.00;95726.31;5094659;28;20508;-34
2022/01/09 05:44:44;;;;;;;51.40;13.80;;;;;;;2.75;100.00;95745.19;5094372;28;20443;-34
2022/01/09 05:47:12;;;;;;;25.27;10.10;;;;;;;2.72;100.00;95745.63;5094305;28;20449;-34
2022/01/09 05:49:39;;;;;;;22.13;9.10;;;;;;;2.75;100.00;95747.81;5094613;28;20449;-34
2022/01/09 05:52:07;;;;;;;24.10;10.00;;;;;;;2.69;100.00;95735.59;5093932;28;20826;-34
2022/01/09 05:54:35;;;;;;;21.47;9.50;;;;;;;2.80;100.00;95758.47;5094232;28;20443;-34
2022/01/09 05:57:02;;;;;;;29.10;14.20;;;;;;;2.80;100.00;95761.09;5094006;28;20477;-34
2022/01/09 05:59:29;;;;;;;34.23;13.77;;;;;;;2.84;100.00;95772.78;5094246;28;20445;-34
2022/01/09 06:01:58;;;;;;;35.30;13.63;;;;;;;2.83;100.00;95759.88;5094280;28;20490;-33
2022/01/09 06:04:25;;;;;;;29.63;13.10;;;;;;;2.85;100.00;95761.25;5094030;28;20496;-33
2022/01/09 06:06:54;;;;;;;30.13;14.57;;;;;;;2.89;100.00;95756.41;5093970;28;20959;-34
2022/01/09 06:09:22;;;;;;;28.43;12.17;;;;;;;2.83;100.00;95758.03;5094189;28;20444;-37
2022/01/09 06:11:49;;;;;;;26.43;11.97;;;;;;;2.72;100.00;95760.56;5094080;28;20443;-37
2022/01/09 06:14:16;;;;;;;27.20;13.07;;;;;;;2.71;100.00;95744.03;5093916;28;20777;-37
2022/01/09 06:16:43;;;;;;;30.60;11.10;;;;;;;2.72;100.00;95750.06;5093836;28;20922;-34
2022/01/09 06:19:13;;;;;;;25.50;11.30;;;;;;;2.72;100.00;95756.13;5094147;28;20439;-35
2022/01/09 06:21:40;;;;;;;14.40;7.80;;;;;;;2.74;100.00;95745.44;5093754;28;20487;-34
2022/01/09 06:24:07;;;;;;;46.90;11.90;;;;;;;2.65;100.00;95739.63;5094088;28;20503;-34
2022/01/09 06:26:35;;;;;;;22.83;10.33;;;;;;;2.53;100.00;95736.88;5093672;28;20938;-34
2022/01/09 06:29:02;;;;;;;21.57;12.63;;;;;;;2.52;100.00;95742.31;5093708;28;20942;-34
2022/01/09 06:31:29;;;;;;;27.93;12.87;;;;;;;2.53;100.00;95751.81;5093844;28;20443;-34
2022/01/09 06:33:56;;;;;;;63.43;23.67;;;;;;;2.57;100.00;95732.03;5093571;28;20442;-34
2022/01/09 06:36:25;;;;;;;66.13;26.20;;;;;;;2.62;100.00;95740.88;5093542;28;20435;-35
2022/01/09 06:38:52;;;;;;;55.70;22.67;;;;;;;2.67;100.00;95737.59;5093431;28;20438;-34
2022/01/09 06:41:19;;;;;;;61.43;25.00;;;;;;;2.70;100.00;95747.66;5093818;28;20442;-34
2022/01/09 06:43:46;;;;;;;34.13;14.00;;;;;;;2.73;100.00;95747.25;5093455;28;20439;-37
2022/01/09 06:46:14;;;;;;;26.70;12.97;;;;;;;2.76;100.00;95741.56;5093902;28;20438;-34
2022/01/09 06:48:41;;;;;;;55.27;19.37;;;;;;;2.75;100.00;95755.69;5093702;28;20442;-34
2022/01/09 06:51:10;;;;;;;52.53;19.73;;;;;;;2.75;100.00;95739.94;5093279;28;20522;-34
2022/01/09 06:53:39;;;;;;;72.17;26.27;;;;;;;2.74;100.00;95735.75;5093418;28;20453;-34
2022/01/09 06:56:06;;;;;;;37.53;17.47;;;;;;;2.82;100.00;95745.97;5093288;28;20474;-35
2022/01/09 06:58:36;;;;;;;25.00;13.53;;;;;;;2.80;100.00;95740.13;5093749;28;20953;-34
2022/01/09 07:01:04;;;;;;;37.83;17.30;;;;;;;2.76;100.00;95736.31;5093355;28;20436;-34
2022/01/09 07:03:31;;;;;;;27.27;10.57;;;;;;;2.78;100.00;95741.38;5096008;28;20489;-35
2022/01/09 07:05:59;;;;;;;24.33;10.07;;;;;;;2.75;100.00;95739.94;5097505;28;20449;-34
2022/01/09 07:08:27;;;;;;;34.00;13.47;;;;;;;2.79;100.00;95738.50;5097333;28;20446;-33
2022/01/09 07:10:56;;;;;;;26.53;12.60;;;;;;;2.77;100.00;95737.91;5097705;28;20464;-34
2022/01/09 07:13:23;;;;;;;47.73;18.63;;;;;;;2.79;100.00;95750.81;5097421;28;20533;-35
2022/01/09 07:15:50;;;;;;;43.93;19.60;;;;;;;2.75;100.00;95739.94;5097544;28;20443;-34
2022/01/09 07:18:18;;;;;;;21.40;12.57;;;;;;;2.51;100.00;95720.56;5097256;28;20533;-34
2022/01/09 07:20:45;;;;;;;32.23;14.30;;;;;;;2.53;100.00;95730.84;5097219;28;20918;-34
2022/01/09 07:23:12;;;;;;;29.70;14.37;;;;;;;2.51;100.00;95733.66;5097411;28;20573;-34
2022/01/09 07:25:39;;;;;;;34.10;10.67;;;;;;;2.47;100.00;95729.84;5097395;28;20458;-34
2022/01/09 07:28:08;;;;;;;26.63;11.80;;;;;;;2.43;100.00;95733.91;5097114;28;20445;-35
2022/01/09 07:30:35;;;;;;;47.93;21.80;;;;;;;2.40;100.00;95721.25;5096918;28;20451;-35
2022/01/09 07:33:04;;;;;;;51.10;21.10;;;;;;;2.44;100.00;95720.59;5097029;28;20530;-34
2022/01/09 07:35:32;;;;;;;41.77;18.23;;;;;;;2.52;100.00;95718.72;5096880;28;20496;-35
2022/01/09 07:37:59;;;;;;;39.93;19.90;;;;;;;2.62;100.00;95721.69;5097192;28;20521;-35
2022/01/09 07:40:28;;;;;;;38.63;17.10;;;;;;;2.71;100.00;95702.09;5096961;28;20445;-34
2022/01/09 07:42:55;;;;;;;34.50;16.03;;;;;;;2.79;100.00;95704.44;5096656;28;20830;-33
2022/01/09 07:45:27;;;;;;;37.13;17.70;;;;;;;2.86;100.00;95707.81;5096774;28;20439;-33
2022/01/09 07:47:56;;;;;;;35.00;15.40;;;;;;;2.90;100.00;95707.38;5096600;28;20477;-34
2022/01/09 07:50:24;;;;;;;39.73;17.17;;;;;;;2.93;100.00;95699.09;5096717;28;20531;-34
2022/01/09 07:52:51;;;;;;;33.93;17.70;;;;;;;2.94;100.00;95701.50;5096578;28;20438;-34
2022/01/09 07:55:20;;;;;;;32.33;14.23;;;;;;;2.97;100.00;95701.09;5096527;28;20439;-34
2022/01/09 07:57:48;;;;;;;28.63;12.80;;;;;;;2.98;100.00;95700.06;5096401;28;20508;-34
2022/01/09 08:00:16;;;;;;;34.00;16.97;;;;;;;2.94;100.00;95700.69;5096519;28;20530;-34
2022/01/09 08:02:46;;;;;;;45.30;19.13;;;;;;;2.91;100.00;95706.38;5096311;28;21100;-34
2022/01/09 08:05:15;;;;;;;39.00;18.03;;;;;;;2.92;100.00;95707.97;5096447;28;20454;-34
2022/01/09 08:07:43;;;;;;;46.37;17.23;;;;;;;2.95;100.00;95707.56;5096297;28;20447;-35
2022/01/09 08:10:11;;;;;;;49.67;21.27;;;;;;;2.77;100.00;95690.72;5096299;28;20447;-34
2022/01/09 08:12:38;;;;;;;43.33;19.40;;;;;;;2.85;100.00;95702.78;5096072;28;20451;-33
2022/01/09 08:15:07;;;;;;;52.50;30.40;;;;;;;2.76;100.00;95699.63;5095462;28;20437;-34
2022/01/09 08:17:34;;;;;;;33.23;17.77;;;;;;;2.81;100.00;95704.22;5096128;28;20447;-34
2022/01/09 08:20:04;;;;;;;33.60;15.33;;;;;;;2.85;100.00;95708.81;5095992;28;20446;-34
2022/01/09 08:22:32;;;;;;;35.40;16.93;;;;;;;2.92;100.00;95710.59;5095992;28;20850;-35
2022/01/09 08:24:59;;;;;;;27.60;12.40;;;;;;;2.98;100.00;95705.28;5096074;28;20443;-34
2022/01/09 08:27:27;;;;;;;59.27;23.30;;;;;;;3.06;100.00;95699.00;5096015;28;20439;-34
2022/01/09 08:29:54;;;;;;;52.10;24.10;;;;;;;3.09;100.00;95698.53;5095906;28;20446;-34
2022/01/09 08:32:21;;;;;;;61.20;23.40;;;;;;;3.05;100.00;95700.00;5095968;28;20532;-36
2022/01/09 08:34:48;;;;;;;75.50;19.80;;;;;;;2.94;100.00;95692.84;5095788;28;20439;-34
2022/01/09 08:37:17;;;;;;;40.93;15.50;;;;;;;2.87;100.00;95701.56;5096155;28;20454;-34
2022/01/09 08:39:45;;;;;;;61.60;24.23;;;;;;;2.90;100.00;95705.56;5095795;28;20934;-35
2022/01/09 08:42:13;;;;;;;39.60;17.63;;;;;;;2.87;100.00;95696.31;5095891;28;20846;-36
2022/01/09 08:44:41;;;;;;;28.37;13.40;;;;;;;2.69;100.00;95672.69;5095750;28;20444;-34
2022/01/09 08:47:10;;;;;;;37.37;17.40;;;;;;;2.90;100.00;95694.28;5095636;28;20445;-33
2022/01/09 08:49:37;;;;;;;33.10;14.43;;;;;;;2.89;100.00;95682.19;5095962;28;20447;-34
2022/01/09 08:52:05;;;;;;;32.23;15.93;;;;;;;2.92;100.00;95672.06;5096654;28;20552;-35
2022/01/09 08:54:37;;;;;;;41.67;18.23;;;;;;;3.20;100.00;95700.44;5095742;28;20447;-35
2022/01/09 08:57:06;;;;;;;33.87;14.17;;;;;;;3.31;100.00;95701.56;5095167;28;20973;-34
2022/01/09 08:59:33;;;;;;;27.93;14.33;;;;;;;3.37;100.00;95710.41;5095377;28;20489;-37
2022/01/09 09:02:01;;;;;;;48.97;19.53;;;;;;;3.39;100.00;95708.38;5095289;28;20537;-34
2022/01/09 09:04:28;;;;;;;29.70;15.17;;;;;;;3.39;100.00;95697.88;5095255;28;20441;-35
2022/01/09 09:06:55;;;;;;;26.43;12.20;;;;;;;3.47;100.00;95690.50;5095188;28;20447;-34
2022/01/09 09:09:22;;;;;;;26.20;10.90;;;;;;;3.48;100.00;95691.31;5095179;28;20450;-34
2022/01/09 09:11:51;;;;;;;33.23;11.30;;;;;;;3.52;100.00;95687.22;5095518;28;20542;-35
2022/01/09 09:14:20;;;;;;;38.40;14.53;;;;;;;3.58;100.00;95691.59;5095993;28;20451;-35
2022/01/09 09:16:47;;;;;;;19.67;11.00;;;;;;;3.63;100.00;95686.50;5095764;28;20447;-35
2022/01/09 09:19:15;;;;;;;24.00;10.70;;;;;;;3.67;100.00;95679.78;5095062;28;20443;-34
2022/01/09 09:21:43;;;;;;;33.60;18.00;;;;;;;3.65;100.00;95687.06;5094936;28;20439;-35
2022/01/09 09:24:10;;;;;;;32.93;13.90;;;;;;;3.52;100.00;95679.34;5094902;28;20548;-36
2022/01/09 09:26:37;;;;;;;32.50;15.07;;;;;;;3.50;100.00;95678.75;5093863;28;20542;-33
2022/01/09 09:29:07;;;;;;;33.60;15.20;;;;;;;3.55;100.00;95673.69;5095062;28;20548;-34
2022/01/09 09:31:34;;;;;;;25.93;13.40;;;;;;;3.40;100.00;95649.59;5094753;28;20439;-34
2022/01/09 09:34:02;;;;;;;34.10;18.47;;;;;;;3.58;100.00;95675.06;5094970;28;20451;-34
2022/01/09 09:36:29;;;;;;;26.17;15.63;;;;;;;3.61;100.00;95664.91;5095003;28;20919;-34
2022/01/09 09:38:56;;;;;;;32.77;15.07;;;;;;;3.64;100.00;95664.47;5094638;28;20439;-35
2022/01/09 09:41:25;;;;;;;33.80;15.23;;;;;;;3.66;100.00;95657.19;5094656;28;20443;-35
2022/01/09 09:43:52;;;;;;;50.47;17.50;;;;;;;3.65;100.00;95655.56;5094483;28;20563;-35
2022/01/09 09:46:23;;;;;;;59.77;27.30;;;;;;;3.68;100.00;95663.03;5094501;28;20438;-36
2022/01/09 09:48:51;;;;;;;25.63;15.00;;;;;;;3.69;100.00;95654.13;5094450;28;20424;-36
2022/01/09 09:51:19;;;;;;;28.20;13.73;;;;;;;3.69;100.00;95664.63;5094771;28;20439;-35
2022/01/09 09:53:46;;;;;;;41.97;19.00;;;;;;;3.77;100.00;95657.47;5094623;28;20446;-34
2022/01/09 09:56:13;;;;;;;23.27;9.00;;;;;;;3.71;100.00;95653.91;5094401;28;21016;-34
2022/01/09 09:58:41;;;;;;;39.90;20.17;;;;;;;3.71;100.00;95647.84;5094256;28;20450;-34
2022/01/09 10:01:22;;;;;;;58.60;31.97;;;;;;;3.71;100.00;95634.72;5094123;28;20903;-35
2022/01/09 10:03:57;;;;;;;22.77;10.40;;;;;;;3.55;100.00;95617.75;5094138;28;21000;-36
2022/01/09 10:06:38;;;;;;;22.67;11.10;;;;;;;3.77;100.00;95644.34;5094163;28;20431;-37
2022/01/09 10:09:10;;;;;;;43.60;20.73;;;;;;;3.83;100.00;95631.13;5094421;28;20446;-35
2022/01/09 10:11:46;;;;;;;46.33;20.37;;;;;;;3.87;100.00;95627.03;5094411;28;20797;-35
2022/01/09 10:14:15;;;;;;;51.53;21.93;;;;;;;3.91;100.00;95635.25;5093999;28;20452;-34
2022/01/09 10:16:42;;;;;;;35.73;17.80;;;;;;;3.91;100.00;95632.63;5093996;28;20450;-34
2022/01/09 10:19:11;;;;;;;35.20;22.70;;;;;;;3.87;100.00;95627.03;5093918;28;20445;-34
2022/01/09 10:21:38;;;;;;;25.10;11.20;;;;;;;3.93;100.00;95621.91;5094046;28;20810;-35
2022/01/09 10:24:07;;;;;;;40.93;17.93;;;;;;;3.91;100.00;95606.38;5093830;28;21004;-34
2022/01/09 10:26:36;;;;;;;35.10;17.30;;;;;;;3.93;100.00;95601.69;5093750;28;20481;-34
2022/01/09 10:29:04;;;;;;;24.30;12.67;;;;;;;3.87;100.00;95616.53;5093759;28;20531;-34
2022/01/09 10:31:41;;;;;;;19.07;8.73;;;;;;;3.86;100.00;95608.88;5093615;28;20534;-34
2022/01/09 10:34:10;;;;;;;21.60;11.57;;;;;;;3.87;100.00;95615.72;5093742;28;20438;-35
2022/01/09 10:36:42;;;;;;;29.90;14.30;;;;;;;3.89;100.00;95597.91;5093622;28;20443;-34
2022/01/09 10:39:13;;;;;;;26.87;12.77;;;;;;;3.89;100.00;95616.31;5093614;28;20791;-34
2022/01/09 10:41:58;;;;;;;34.60;12.70;;;;;;;3.64;100.00;95580.47;5093686;28;20911;-35
2022/01/09 10:44:31;;;;;;;27.80;11.80;;;;;;;3.71;100.00;95593.53;5093514;28;20487;-35
2022/01/09 10:46:59;;;;;;;23.13;11.30;;;;;;;3.56;100.00;95596.53;5093603;28;20922;-34
2022/01/09 10:49:38;;;;;;;32.40;13.00;;;;;;;3.48;100.00;95581.91;5093732;28;20438;-39
2022/01/09 10:52:18;;;;;;;20.23;11.33;;;;;;;3.48;100.00;95581.09;5093757;28;20449;-35
2022/01/09 10:54:47;;;;;;;19.60;12.13;;;;;;;3.51;100.00;95587.72;5093465;28;20907;-34
2022/01/09 10:57:17;;;;;;;17.43;9.33;;;;;;;3.50;100.00;95576.41;5093223;28;20490;-34
2022/01/09 10:59:46;;;;;;;21.30;8.90;;;;;;;3.56;100.00;95578.16;5092707;28;20442;-33
2022/01/09 11:02:13;;;;;;;19.23;11.37;;;;;;;3.55;100.00;95575.75;5094247;28;20458;-34
2022/01/09 11:04:45;;;;;;;24.63;13.50;;;;;;;3.33;100.00;95536.06;5093366;28;20489;-34
2022/01/09 11:07:13;;;;;;;25.03;10.93;;;;;;;3.48;100.00;95560.09;5093504;28;20439;-35
2022/01/09 11:09:44;;;;;;;21.97;11.27;;;;;;;3.52;100.00;95560.47;5093299;28;20439;-36
2022/01/09 11:12:19;;;;;;;19.33;7.47;;;;;;;3.55;100.00;95545.06;5093548;28;20427;-34
2022/01/09 11:14:49;;;;;;;13.37;8.77;;;;;;;3.46;100.00;95547.22;5093478;28;20762;-35
2022/01/09 11:17:17;;;;;;;16.13;8.33;;;;;;;3.38;100.00;95544.09;5093163;28;20442;-35
2022/01/09 11:19:49;;;;;;;29.97;12.87;;;;;;;3.26;100.00;95536.94;5093431;28;20554;-37
2022/01/09 11:22:16;;;;;;;32.30;11.40;;;;;;;3.26;100.00;95534.31;5093672;28;20450;-36
2022/01/09 11:25:11;;;;;;;19.13;10.00;;;;;;;3.10;100.00;95534.94;5093429;28;20491;-35